createdAt,value
2019-05-16T00:00:25.292Z,65.2527
2019-05-16T00:01:29.950Z,65.3564
2019-05-16T00:02:33.305Z,65.3564
2019-05-16T00:03:38.288Z,65.4602
2019-05-16T00:04:41.280Z,65.4602
2019-05-16T00:05:53.368Z,65.4602
2019-05-16T00:06:52.300Z,65.5640
2019-05-16T00:07:55.304Z,65.4602
2019-05-16T00:08:58.572Z,65.5640
2019-05-16T00:10:01.308Z,65.5640
2019-05-16T00:11:04.270Z,65.6677
2019-05-16T00:12:08.802Z,65.5640
2019-05-16T00:13:12.273Z,65.5640
2019-05-16T00:14:15.313Z,65.6677
2019-05-16T00:15:18.405Z,65.5640
2019-05-16T00:16:22.317Z,65.4602
2019-05-16T00:17:25.267Z,65.2527
2019-05-16T00:18:28.517Z,65.2527
2019-05-16T00:19:30.360Z,65.2527
2019-05-16T00:20:33.290Z,65.1489
2019-05-16T00:21:38.215Z,65.2527
2019-05-16T00:22:43.321Z,65.5640
2019-05-16T00:23:48.300Z,65.4602
2019-05-16T00:24:51.332Z,66.0095
2019-05-16T00:25:54.275Z,65.8020
2019-05-16T00:26:58.001Z,65.8020
2019-05-16T00:28:01.303Z,65.8020
2019-05-16T00:29:04.295Z,65.8020
2019-05-16T00:30:08.617Z,65.6982
2019-05-16T00:31:12.315Z,65.8020
2019-05-16T00:32:15.281Z,65.6982
2019-05-16T00:33:18.467Z,65.6982
2019-05-16T00:34:21.291Z,65.8020
2019-05-16T00:35:24.338Z,66.0095
2019-05-16T00:36:27.803Z,65.9058
2019-05-16T00:37:31.267Z,65.9058
2019-05-16T00:38:34.311Z,65.9058
2019-05-16T00:39:38.796Z,65.9058
2019-05-16T00:40:42.372Z,65.9058
2019-05-16T00:41:45.264Z,66.1072
2019-05-16T00:42:49.105Z,66.1072
2019-05-16T00:43:52.285Z,66.1072
2019-05-16T00:44:55.331Z,66.2109
2019-05-16T00:45:58.947Z,66.3147
2019-05-16T00:47:02.332Z,66.2109
2019-05-16T00:48:05.282Z,66.2415
2019-05-16T00:49:08.483Z,66.2415
2019-05-16T00:50:11.366Z,66.3452
2019-05-16T00:51:14.285Z,66.5527
2019-05-16T00:52:18.367Z,66.6565
2019-05-16T00:53:21.311Z,66.7603
2019-05-16T00:54:24.336Z,66.6565
2019-05-16T00:55:28.366Z,66.6565
2019-05-16T00:56:31.277Z,66.8640
2019-05-16T00:57:33.340Z,66.7603
2019-05-16T00:58:37.804Z,66.7603
2019-05-16T00:59:41.326Z,66.7603
2019-05-16T01:00:44.282Z,66.7603
2019-05-16T01:01:50.060Z,66.7603
2019-05-16T01:02:53.299Z,66.8640
2019-05-16T01:03:58.468Z,66.7603
2019-05-16T01:05:01.328Z,66.9678
2019-05-16T01:06:15.834Z,67.0715
2019-05-16T01:07:12.281Z,67.1692
2019-05-16T01:08:15.305Z,67.3035
2019-05-16T01:09:18.848Z,67.3035
2019-05-16T01:10:22.295Z,67.4072
2019-05-16T01:11:27.634Z,67.3035
2019-05-16T01:12:29.309Z,67.4072
2019-05-16T01:13:32.301Z,67.4072
2019-05-16T01:14:35.311Z,67.3035
2019-05-16T01:15:38.319Z,67.3035
2019-05-16T01:16:41.291Z,67.2058
2019-05-16T01:17:44.324Z,67.2058
2019-05-16T01:18:48.617Z,67.2058
2019-05-16T01:19:52.341Z,67.2058
2019-05-16T01:20:55.303Z,67.2058
2019-05-16T01:21:59.014Z,67.2058
2019-05-16T01:23:02.306Z,67.1021
2019-05-16T01:24:05.318Z,67.2058
2019-05-16T01:25:09.412Z,67.2058
2019-05-16T01:26:12.313Z,67.2058
2019-05-16T01:27:15.291Z,67.1021
2019-05-16T01:28:19.294Z,67.1021
2019-05-16T01:29:22.299Z,67.2058
2019-05-16T01:30:25.344Z,67.3035
2019-05-16T01:31:28.303Z,67.3035
2019-05-16T01:32:32.213Z,67.2058
2019-05-16T01:33:35.291Z,67.3035
2019-05-16T01:34:38.352Z,67.3035
2019-05-16T01:35:41.836Z,67.3401
2019-05-16T01:36:45.342Z,67.3401
2019-05-16T01:37:48.748Z,67.3401
2019-05-16T01:38:52.349Z,67.4377
2019-05-16T01:39:55.295Z,67.3401
2019-05-16T01:40:58.483Z,67.4377
2019-05-16T01:42:01.310Z,67.4377
2019-05-16T01:43:03.283Z,67.4377
2019-05-16T01:44:07.870Z,67.6453
2019-05-16T01:45:11.327Z,67.6453
2019-05-16T01:46:18.048Z,67.6453
2019-05-16T01:47:23.305Z,67.7490
2019-05-16T01:48:29.150Z,67.7490
2019-05-16T01:49:34.291Z,67.7490
2019-05-16T01:50:38.818Z,67.7490
2019-05-16T01:51:42.277Z,67.8528
2019-05-16T01:52:45.302Z,67.9565
2019-05-16T01:53:48.845Z,67.9565
2019-05-16T01:54:51.266Z,67.8528
2019-05-16T01:55:54.352Z,67.7490
2019-05-16T01:56:59.377Z,67.8528
2019-05-16T01:58:03.352Z,67.7490
2019-05-16T01:59:08.869Z,67.7490
2019-05-16T02:00:11.295Z,67.6453
2019-05-16T02:01:15.911Z,67.5415
2019-05-16T02:02:19.305Z,67.6453
2019-05-16T02:03:22.312Z,67.6453
2019-05-16T02:04:25.274Z,67.6758
2019-05-16T02:05:28.306Z,67.7795
2019-05-16T02:06:31.298Z,67.5415
2019-05-16T02:07:34.322Z,67.4744
2019-05-16T02:08:38.032Z,67.4377
2019-05-16T02:09:41.308Z,67.3706
2019-05-16T02:10:44.276Z,67.3706
2019-05-16T02:11:48.107Z,67.3401
2019-05-16T02:12:51.289Z,67.3706
2019-05-16T02:13:54.293Z,67.3706
2019-05-16T02:14:58.728Z,67.3706
2019-05-16T02:16:02.297Z,67.2668
2019-05-16T02:17:05.332Z,67.2668
2019-05-16T02:18:08.479Z,67.2668
2019-05-16T02:19:11.325Z,67.2668
2019-05-16T02:20:14.305Z,67.1631
2019-05-16T02:21:18.189Z,67.1631
2019-05-16T02:22:21.296Z,67.3706
2019-05-16T02:23:24.285Z,67.3706
2019-05-16T02:24:28.494Z,67.3706
2019-05-16T02:25:30.280Z,67.3706
2019-05-16T02:26:33.328Z,67.4744
2019-05-16T02:27:40.598Z,67.4744
2019-05-16T02:28:44.341Z,67.6758
2019-05-16T02:29:47.270Z,67.6758
2019-05-16T02:30:51.368Z,67.7795
2019-05-16T02:31:55.289Z,67.7795
2019-05-16T02:33:01.088Z,67.8833
2019-05-16T02:34:04.806Z,67.9871
2019-05-16T02:35:11.264Z,68.1213
2019-05-16T02:36:15.331Z,68.0908
2019-05-16T02:37:25.811Z,68.1213
2019-05-16T02:38:26.315Z,68.2251
2019-05-16T02:39:30.589Z,68.2251
2019-05-16T02:40:33.306Z,68.2251
2019-05-16T02:41:36.257Z,68.2251
2019-05-16T02:42:41.951Z,68.3289
2019-05-16T02:43:45.279Z,68.4326
2019-05-16T02:44:51.105Z,68.4326
2019-05-16T02:45:54.252Z,68.3289
2019-05-16T02:46:57.248Z,68.3289
2019-05-16T02:48:01.346Z,68.3289
2019-05-16T02:49:04.294Z,68.4326
2019-05-16T02:50:06.311Z,68.4326
2019-05-16T02:51:11.079Z,68.3289
2019-05-16T02:52:14.319Z,68.2251
2019-05-16T02:53:17.307Z,68.3289
2019-05-16T02:54:21.813Z,68.4326
2019-05-16T02:55:25.303Z,68.4326
2019-05-16T02:56:27.319Z,68.4326
2019-05-16T02:57:31.660Z,68.3289
2019-05-16T02:58:35.303Z,68.3289
2019-05-16T02:59:41.275Z,68.3289
2019-05-16T03:00:44.286Z,68.4326
2019-05-16T03:01:47.315Z,68.3289
2019-05-16T03:02:50.523Z,68.3289
2019-05-16T03:03:53.323Z,68.3289
2019-05-16T03:04:56.284Z,68.2251
2019-05-16T03:06:01.392Z,68.3289
2019-05-16T03:07:04.315Z,68.3289
2019-05-16T03:08:07.284Z,68.2251
2019-05-16T03:09:11.243Z,68.2251
2019-05-16T03:10:14.299Z,68.2251
2019-05-16T03:11:20.711Z,68.2251
2019-05-16T03:12:23.272Z,68.3594
2019-05-16T03:13:26.337Z,68.3594
2019-05-16T03:14:31.619Z,68.3594
2019-05-16T03:15:34.298Z,68.3594
2019-05-16T03:16:37.284Z,68.2556
2019-05-16T03:17:40.446Z,68.2556
2019-05-16T03:18:43.331Z,68.2556
2019-05-16T03:19:46.284Z,68.1519
2019-05-16T03:20:51.007Z,68.0542
2019-05-16T03:21:54.277Z,68.0542
2019-05-16T03:22:57.324Z,68.0542
2019-05-16T03:24:00.854Z,67.9504
2019-05-16T03:25:04.298Z,67.9504
2019-05-16T03:26:07.285Z,67.9504
2019-05-16T03:27:10.825Z,67.9504
2019-05-16T03:28:14.305Z,68.0542
2019-05-16T03:29:17.314Z,68.0542
2019-05-16T03:30:23.728Z,68.1519
2019-05-16T03:31:26.282Z,68.2556
2019-05-16T03:32:34.060Z,68.1519
2019-05-16T03:33:48.442Z,68.2556
2019-05-16T03:34:45.328Z,68.2556
2019-05-16T03:35:53.657Z,68.2556
2019-05-16T03:36:56.336Z,68.2556
2019-05-16T03:38:01.451Z,68.3594
2019-05-16T03:39:10.488Z,68.4631
2019-05-16T03:40:13.274Z,68.4631
2019-05-16T03:41:16.319Z,68.4631
2019-05-16T03:42:20.461Z,68.4631
2019-05-16T03:43:23.277Z,68.4937
2019-05-16T03:44:26.352Z,68.5669
2019-05-16T03:45:31.791Z,68.7012
2019-05-16T03:46:36.377Z,68.6707
2019-05-16T03:47:42.619Z,68.7012
2019-05-16T03:48:46.346Z,68.7012
2019-05-16T03:49:51.728Z,68.7012
2019-05-16T03:50:55.284Z,68.7012
2019-05-16T03:52:01.342Z,68.7012
2019-05-16T03:53:04.306Z,68.7012
2019-05-16T03:54:07.352Z,68.7012
2019-05-16T03:55:10.999Z,68.8049
2019-05-16T03:56:14.295Z,68.8049
2019-05-16T03:57:20.907Z,68.7012
2019-05-16T03:58:24.310Z,68.7012
2019-05-16T03:59:27.326Z,68.7012
2019-05-16T04:00:31.586Z,68.7012
2019-05-16T04:01:33.296Z,68.7012
2019-05-16T04:02:35.489Z,68.7012
2019-05-16T04:03:41.229Z,68.7744
2019-05-16T04:04:44.301Z,68.7744
2019-05-16T04:05:47.282Z,68.7744
2019-05-16T04:06:50.764Z,68.7744
2019-05-16T04:08:10.161Z,68.6707
2019-05-16T04:09:01.717Z,68.5669
2019-05-16T04:10:06.352Z,68.5669
2019-05-16T04:11:11.734Z,68.5669
2019-05-16T04:12:14.262Z,68.4631
2019-05-16T04:13:17.302Z,68.3594
2019-05-16T04:14:21.365Z,68.3594
2019-05-16T04:15:24.265Z,68.3594
2019-05-16T04:16:31.318Z,68.2556
2019-05-16T04:17:34.293Z,68.3594
2019-05-16T04:18:37.277Z,68.2556
2019-05-16T04:19:41.531Z,68.2556
2019-05-16T04:20:44.300Z,68.2556
2019-05-16T04:21:50.824Z,68.2556
2019-05-16T04:22:54.300Z,68.2556
2019-05-16T04:23:57.321Z,68.1519
2019-05-16T04:25:01.896Z,68.1519
2019-05-16T04:26:05.287Z,68.0176
2019-05-16T04:27:07.291Z,68.0176
2019-05-16T04:28:11.578Z,68.0176
2019-05-16T04:29:14.333Z,68.0176
2019-05-16T04:30:17.362Z,67.9138
2019-05-16T04:31:22.087Z,67.9138
2019-05-16T04:32:25.351Z,67.9138
2019-05-16T04:33:30.987Z,67.9138
2019-05-16T04:34:34.351Z,67.9138
2019-05-16T04:35:37.288Z,67.9138
2019-05-16T04:36:40.829Z,67.9138
2019-05-16T04:37:44.321Z,67.8162
2019-05-16T04:38:47.331Z,67.9138
2019-05-16T04:39:50.764Z,68.0176
2019-05-16T04:40:54.294Z,68.0176
2019-05-16T04:41:57.306Z,68.1213
2019-05-16T04:43:01.365Z,68.1213
2019-05-16T04:44:04.907Z,68.2251
2019-05-16T04:45:11.515Z,68.4326
2019-05-16T04:46:14.317Z,68.4326
2019-05-16T04:47:17.326Z,68.5364
2019-05-16T04:48:22.290Z,68.5364
2019-05-16T04:49:25.352Z,68.5364
2019-05-16T04:50:30.968Z,68.7439
2019-05-16T04:51:34.297Z,68.7439
2019-05-16T04:52:37.291Z,68.8477
2019-05-16T04:53:42.464Z,68.9514
2019-05-16T04:54:46.350Z,69.1589
2019-05-16T04:55:51.566Z,69.1589
2019-05-16T04:56:54.327Z,69.2627
2019-05-16T04:57:57.310Z,69.2627
2019-05-16T04:59:00.550Z,69.1589
2019-05-16T05:00:04.303Z,69.2627
2019-05-16T05:01:07.329Z,69.2627
2019-05-16T05:02:12.220Z,69.2627
2019-05-16T05:03:16.298Z,69.2627
2019-05-16T05:04:21.094Z,69.2627
2019-05-16T05:05:24.339Z,69.2627
2019-05-16T05:06:27.313Z,69.2627
2019-05-16T05:07:31.242Z,69.3665
2019-05-16T05:08:49.121Z,69.3665
2019-05-16T05:09:42.326Z,69.4336
2019-05-16T05:10:45.327Z,69.4336
2019-05-16T05:11:48.289Z,69.4336
2019-05-16T05:12:51.461Z,69.4336
2019-05-16T05:13:55.290Z,69.4336
2019-05-16T05:15:00.998Z,69.4336
2019-05-16T05:16:04.306Z,69.4336
2019-05-16T05:17:07.289Z,69.4336
2019-05-16T05:18:10.347Z,69.5374
2019-05-16T05:19:13.314Z,69.6411
2019-05-16T05:20:16.331Z,69.7449
2019-05-16T05:21:20.953Z,69.7449
2019-05-16T05:22:24.302Z,69.8486
2019-05-16T05:23:29.961Z,69.9524
2019-05-16T05:24:33.313Z,70.1599
2019-05-16T05:25:36.314Z,70.3674
2019-05-16T05:26:41.460Z,70.2637
2019-05-16T05:27:45.310Z,70.3674
2019-05-16T05:28:50.573Z,70.4712
2019-05-16T05:29:54.305Z,70.5688
2019-05-16T05:30:59.549Z,70.4712
2019-05-16T05:32:04.702Z,70.6726
2019-05-16T05:33:10.117Z,70.8801
2019-05-16T05:34:13.332Z,70.8801
2019-05-16T05:35:15.313Z,70.8801
2019-05-16T05:36:20.815Z,70.8801
2019-05-16T05:37:24.290Z,70.9839
2019-05-16T05:38:27.273Z,71.0876
2019-05-16T05:39:30.451Z,71.0876
2019-05-16T05:40:33.321Z,71.0876
2019-05-16T05:41:36.365Z,71.2952
2019-05-16T05:42:39.869Z,71.2952
2019-05-16T05:43:42.340Z,71.3989
2019-05-16T05:44:45.296Z,71.3989
2019-05-16T05:45:50.901Z,71.1609
2019-05-16T05:46:54.283Z,71.2646
2019-05-16T05:48:00.003Z,71.1609
2019-05-16T05:49:03.294Z,71.2646
2019-05-16T05:50:06.304Z,71.1609
2019-05-16T05:51:11.265Z,71.1609
2019-05-16T05:52:15.307Z,71.0571
2019-05-16T05:53:20.633Z,70.9534
2019-05-16T05:54:24.282Z,70.8496
2019-05-16T05:55:27.322Z,70.8496
2019-05-16T05:56:30.612Z,70.8191
2019-05-16T05:57:33.357Z,70.8191
2019-05-16T05:58:36.304Z,70.9167
2019-05-16T05:59:40.462Z,70.8191
2019-05-16T06:00:43.305Z,70.8191
2019-05-16T06:01:46.307Z,70.8191
2019-05-16T06:02:50.846Z,70.8191
2019-05-16T06:03:54.295Z,70.8191
2019-05-16T06:04:59.564Z,70.7153
2019-05-16T06:06:03.300Z,70.6787
2019-05-16T06:07:06.340Z,70.6787
2019-05-16T06:08:10.679Z,70.7825
2019-05-16T06:09:25.271Z,70.6787
2019-05-16T06:10:22.317Z,70.4712
2019-05-16T06:11:25.333Z,70.4407
2019-05-16T06:12:30.363Z,70.3369
2019-05-16T06:13:33.289Z,70.4407
2019-05-16T06:14:36.328Z,70.3369
2019-05-16T06:15:39.967Z,70.3369
2019-05-16T06:16:43.302Z,70.4407
2019-05-16T06:17:46.299Z,70.6482
2019-05-16T06:18:50.291Z,70.6482
2019-05-16T06:19:53.302Z,70.6482
2019-05-16T06:20:56.289Z,70.6482
2019-05-16T06:22:01.002Z,70.6177
2019-05-16T06:23:04.307Z,70.6177
2019-05-16T06:24:07.355Z,70.6177
2019-05-16T06:25:13.145Z,70.6177
2019-05-16T06:26:20.148Z,70.6177
2019-05-16T06:27:23.301Z,70.6177
2019-05-16T06:28:26.349Z,70.7153
2019-05-16T06:29:30.965Z,70.6177
2019-05-16T06:30:34.319Z,70.6177
2019-05-16T06:31:37.307Z,70.7153
2019-05-16T06:32:40.342Z,70.7153
2019-05-16T06:33:43.355Z,70.7153
2019-05-16T06:34:46.297Z,70.7153
2019-05-16T06:35:51.330Z,70.6848
2019-05-16T06:36:54.287Z,70.5811
2019-05-16T06:37:57.297Z,70.4773
2019-05-16T06:39:00.318Z,70.3735
2019-05-16T06:40:03.329Z,70.3735
2019-05-16T06:41:06.309Z,70.3735
2019-05-16T06:42:09.835Z,70.3735
2019-05-16T06:43:13.328Z,70.3735
2019-05-16T06:44:16.308Z,70.4468
2019-05-16T06:45:20.485Z,70.4468
2019-05-16T06:46:24.325Z,70.4468
2019-05-16T06:47:27.334Z,70.5505
2019-05-16T06:48:30.603Z,70.4468
2019-05-16T06:49:34.343Z,70.4163
2019-05-16T06:50:37.298Z,70.2087
2019-05-16T06:51:40.344Z,70.0012
2019-05-16T06:52:45.773Z,69.8975
2019-05-16T06:53:50.073Z,69.7937
2019-05-16T06:54:53.917Z,69.7937
2019-05-16T06:55:56.301Z,69.7937
2019-05-16T06:57:00.136Z,69.6960
2019-05-16T06:58:03.334Z,69.5923
2019-05-16T06:59:06.335Z,69.4885
2019-05-16T07:00:10.980Z,69.5923
2019-05-16T07:01:14.337Z,69.7937
2019-05-16T07:02:27.791Z,69.8975
2019-05-16T07:03:25.359Z,69.9707
2019-05-16T07:04:30.329Z,70.0745
2019-05-16T07:05:32.345Z,70.1782
2019-05-16T07:06:51.668Z,70.0745
2019-05-16T07:07:43.326Z,70.0378
2019-05-16T07:08:46.292Z,69.9402
2019-05-16T07:09:59.918Z,69.5251
2019-05-16T07:10:57.353Z,69.5251
2019-05-16T07:12:00.311Z,69.4946
2019-05-16T07:13:03.355Z,69.7021
2019-05-16T07:14:06.297Z,69.7021
2019-05-16T07:15:12.464Z,69.7021
2019-05-16T07:16:15.310Z,69.5618
2019-05-16T07:17:20.198Z,69.5618
2019-05-16T07:18:22.349Z,69.4641
2019-05-16T07:19:25.335Z,69.2566
2019-05-16T07:20:30.205Z,68.4326
2019-05-16T07:21:33.273Z,68.7439
2019-05-16T07:22:36.340Z,68.7439
2019-05-16T07:23:40.466Z,68.6401
2019-05-16T07:24:42.327Z,68.5364
2019-05-16T07:25:45.328Z,68.3289
2019-05-16T07:26:50.023Z,68.1274
2019-05-16T07:27:53.341Z,68.2312
2019-05-16T07:28:56.297Z,67.8162
2019-05-16T07:30:01.069Z,67.8162
2019-05-16T07:31:14.840Z,67.7124
2019-05-16T07:32:12.681Z,67.7124
2019-05-16T07:33:16.314Z,67.8162
2019-05-16T07:34:20.643Z,67.8162
2019-05-16T07:35:24.313Z,67.6147
2019-05-16T07:36:27.341Z,67.4072
2019-05-16T07:37:31.610Z,67.3035
2019-05-16T07:38:35.311Z,67.0959
2019-05-16T07:39:39.295Z,67.1997
2019-05-16T07:40:45.301Z,67.3035
2019-05-16T07:41:50.663Z,67.4072
2019-05-16T07:42:54.323Z,67.4072
2019-05-16T07:43:57.327Z,67.3035
2019-05-16T07:45:00.687Z,67.0959
2019-05-16T07:46:04.337Z,67.0654
2019-05-16T07:47:07.310Z,67.2729
2019-05-16T07:48:10.758Z,67.1692
2019-05-16T07:49:14.306Z,67.3462
2019-05-16T07:50:16.335Z,67.3462
2019-05-16T07:51:20.519Z,67.2424
2019-05-16T07:52:23.363Z,67.2119
2019-05-16T07:53:26.336Z,67.0044
2019-05-16T07:54:34.087Z,66.7664
2019-05-16T07:55:37.315Z,66.6687
2019-05-16T07:56:40.890Z,66.5649
2019-05-16T07:57:44.353Z,66.6321
2019-05-16T07:58:47.311Z,66.3269
2019-05-16T07:59:50.667Z,66.1926
2019-05-16T08:01:02.752Z,65.5823
2019-05-16T08:02:02.332Z,65.0696
2019-05-16T08:03:05.325Z,64.2456
2019-05-16T08:04:10.438Z,63.8367
2019-05-16T08:05:14.352Z,63.9404
2019-05-16T08:06:17.313Z,64.1418
2019-05-16T08:07:20.360Z,64.2151
2019-05-16T08:08:24.545Z,64.3188
2019-05-16T08:09:27.317Z,64.2456
2019-05-16T08:10:37.935Z,64.4531
2019-05-16T08:11:40.656Z,64.4531
2019-05-16T08:12:44.394Z,64.7583
2019-05-16T08:13:47.340Z,64.7583
2019-05-16T08:14:50.378Z,65.2710
2019-05-16T08:15:53.302Z,65.2710
2019-05-16T08:16:56.312Z,64.8315
2019-05-16T08:18:03.242Z,63.8062
2019-05-16T08:19:06.347Z,63.3972
2019-05-16T08:20:10.893Z,62.7808
2019-05-16T08:21:16.893Z,62.6831
2019-05-16T08:22:22.529Z,62.8845
2019-05-16T08:23:26.334Z,63.2935
2019-05-16T08:24:30.580Z,63.5010
2019-05-16T08:25:36.304Z,63.9832
2019-05-16T08:27:47.362Z,63.5742
2019-05-16T08:28:50.668Z,63.8794
2019-05-16T08:29:54.304Z,63.1653
2019-05-16T08:31:00.594Z,62.4451
2019-05-16T08:32:04.311Z,62.5488
2019-05-16T08:33:07.314Z,62.9578
2019-05-16T08:34:12.185Z,63.0615
2019-05-16T08:35:15.322Z,62.8540
2019-05-16T08:36:20.640Z,62.6221
2019-05-16T08:38:32.318Z,62.7258
2019-05-16T08:39:35.311Z,62.5183
2019-05-16T08:41:01.221Z,62.7258
2019-05-16T08:41:46.289Z,62.9272
2019-05-16T08:42:51.658Z,62.9028
2019-05-16T08:43:54.330Z,63.0005
2019-05-16T08:44:57.308Z,62.3901
2019-05-16T08:46:01.038Z,62.7991
2019-05-16T08:47:06.272Z,63.1775
2019-05-16T08:48:11.502Z,62.7686
2019-05-16T08:49:14.374Z,62.7380
2019-05-16T08:50:08.650Z,62.5183
2019-05-16T08:50:17.299Z,62.5366
2019-05-16T08:51:22.182Z,62.7075
2019-05-16T08:52:25.266Z,62.4023
2019-05-16T08:53:31.401Z,62.0972
2019-05-16T08:54:36.396Z,62.0972
2019-05-16T08:55:43.328Z,62.0667
2019-05-16T08:56:46.333Z,61.3525
2019-05-16T08:57:53.017Z,60.7422
2019-05-16T08:58:56.345Z,59.8206
2019-05-16T09:00:01.376Z,59.9976
2019-05-16T09:01:05.303Z,60.4065
2019-05-16T09:02:12.001Z,59.8694
2019-05-16T09:03:15.320Z,57.8308
2019-05-16T09:04:23.862Z,57.8308
2019-05-16T09:05:26.440Z,58.2336
2019-05-16T09:06:31.993Z,58.7463
2019-05-16T09:07:35.365Z,58.8196
2019-05-16T09:08:38.339Z,57.2937
2019-05-16T09:09:48.696Z,57.3669
2019-05-16T09:10:10.717Z,63.6780
2019-05-16T09:11:00.766Z,56.8298
2019-05-16T09:11:57.575Z,56.3232
2019-05-16T09:13:00.383Z,56.7261
2019-05-16T09:14:03.313Z,57.0374
2019-05-16T09:15:07.644Z,55.9143
2019-05-16T09:16:11.331Z,55.5054
2019-05-16T09:17:14.339Z,55.9387
2019-05-16T09:18:17.869Z,55.6335
2019-05-16T09:19:21.344Z,55.9387
2019-05-16T09:20:24.299Z,55.6091
2019-05-16T09:21:27.640Z,55.2002
2019-05-16T09:22:31.305Z,55.4077
2019-05-16T09:23:34.305Z,55.6824
2019-05-16T09:24:37.824Z,56.1951
2019-05-16T09:25:41.264Z,55.5054
2019-05-16T09:26:47.161Z,55.0964
2019-05-16T09:27:50.312Z,54.9988
2019-05-16T09:28:53.299Z,55.2246
2019-05-16T09:29:56.900Z,55.4077
2019-05-16T09:31:00.300Z,55.8594
2019-05-16T09:32:15.918Z,55.8594
2019-05-16T09:33:11.266Z,54.0527
2019-05-16T09:34:17.302Z,54.2603
2019-05-16T09:35:21.332Z,54.8950
2019-05-16T09:36:24.389Z,55.4077
2019-05-16T09:37:27.299Z,55.5298
2019-05-16T09:38:30.302Z,55.7373
2019-05-16T09:39:33.319Z,55.9387
2019-05-16T09:40:38.877Z,55.9387
2019-05-16T09:41:50.609Z,56.3721
2019-05-16T09:42:50.310Z,55.8655
2019-05-16T09:43:53.346Z,55.9692
2019-05-16T09:44:57.740Z,55.9692
2019-05-16T09:46:07.590Z,56.2988
2019-05-16T09:47:09.311Z,56.9092
2019-05-16T09:48:12.339Z,57.0129
2019-05-16T09:49:20.392Z,57.1167
2019-05-16T09:50:23.321Z,57.5989
2019-05-16T09:51:27.154Z,57.9041
2019-05-16T09:52:30.341Z,58.1055
2019-05-16T09:53:33.305Z,57.0862
2019-05-16T09:54:37.902Z,57.0862
2019-05-16T09:55:41.289Z,56.9885
2019-05-16T09:56:46.369Z,57.3914
2019-05-16T09:57:50.346Z,57.1899
2019-05-16T09:58:52.313Z,56.8054
2019-05-16T09:59:57.203Z,56.6040
2019-05-16T10:01:00.314Z,57.1167
2019-05-16T10:02:02.361Z,57.5195
2019-05-16T10:03:07.096Z,57.4219
2019-05-16T10:04:10.287Z,57.8308
2019-05-16T10:05:13.873Z,57.1167
2019-05-16T10:06:19.135Z,57.7271
2019-05-16T10:07:22.370Z,57.3181
2019-05-16T10:08:26.554Z,57.8308
2019-05-16T10:09:40.735Z,57.9285
2019-05-16T10:10:38.330Z,58.4412
2019-05-16T10:11:42.550Z,58.6182
2019-05-16T10:12:46.287Z,58.2092
2019-05-16T10:13:49.371Z,57.5684
2019-05-16T10:14:52.310Z,57.7759
2019-05-16T10:15:55.336Z,57.6721
2019-05-16T10:16:58.328Z,57.7759
2019-05-16T10:18:01.320Z,57.4707
2019-05-16T10:19:04.291Z,56.4209
2019-05-16T10:20:07.886Z,55.5054
2019-05-16T10:21:11.351Z,55.7129
2019-05-16T10:22:16.888Z,56.2195
2019-05-16T10:23:20.335Z,56.4209
2019-05-16T10:27:39.680Z,52.8320
2019-05-16T10:28:42.304Z,52.8076
2019-05-16T10:29:48.094Z,54.0527
2019-05-16T10:30:52.366Z,54.7668
2019-05-16T10:31:56.860Z,54.1565
2019-05-16T10:33:00.978Z,54.5654
2019-05-16T10:34:03.350Z,55.1758
2019-05-16T10:35:06.332Z,54.8462
2019-05-16T10:36:09.333Z,54.8462
2019-05-16T10:37:12.311Z,54.9194
2019-05-16T10:38:15.305Z,54.8950
2019-05-16T10:39:18.303Z,55.0720
2019-05-16T10:40:21.341Z,54.9438
2019-05-16T10:41:24.318Z,55.1208
2019-05-16T10:42:28.906Z,54.8157
2019-05-16T10:43:32.296Z,54.4128
2019-05-16T10:44:38.542Z,52.4841
2019-05-16T10:45:42.303Z,52.6062
2019-05-16T10:46:47.645Z,53.0151
2019-05-16T10:47:50.290Z,54.1321
2019-05-16T10:48:52.627Z,53.9062
2019-05-16T10:49:56.487Z,53.4973
2019-05-16T10:51:00.296Z,51.3672
2019-05-16T10:52:03.341Z,52.5085
2019-05-16T10:53:23.699Z,52.8870
2019-05-16T10:54:17.715Z,52.7893
2019-05-16T10:55:21.329Z,53.6011
2019-05-16T10:56:24.356Z,53.7781
2019-05-16T10:57:29.804Z,53.1189
2019-05-16T10:58:41.401Z,51.5747
2019-05-16T11:00:06.832Z,50.3540
2019-05-16T11:01:11.159Z,50.1282
2019-05-16T11:01:59.686Z,51.3000
2019-05-16T11:03:03.317Z,50.6897
2019-05-16T11:04:07.474Z,50.9949
2019-05-16T11:05:25.133Z,50.5920
2019-05-16T11:06:25.580Z,50.5127
2019-05-16T11:07:29.878Z,50.0061
2019-05-16T11:08:33.344Z,50.5371
2019-05-16T11:09:39.175Z,50.5371
2019-05-16T11:10:42.463Z,50.7141
2019-05-16T11:11:47.621Z,50.1282
2019-05-16T11:12:55.209Z,49.7253
2019-05-16T11:13:58.332Z,49.3958
2019-05-16T11:15:01.351Z,49.1699
2019-05-16T11:16:06.941Z,49.9573
2019-05-16T11:17:13.864Z,49.8352
2019-05-16T11:18:17.640Z,49.5300
2019-05-16T11:19:24.445Z,49.5056
2019-05-16T11:20:28.369Z,49.4812
2019-05-16T11:21:31.350Z,48.6511
2019-05-16T11:22:36.787Z,48.4497
2019-05-16T11:23:40.301Z,47.2412
2019-05-16T11:24:43.330Z,47.5647
2019-05-16T11:25:47.098Z,48.9807
2019-05-16T11:26:50.446Z,49.3591
2019-05-16T11:27:53.281Z,49.6643
2019-05-16T11:28:57.351Z,48.0469
2019-05-16T11:30:00.313Z,48.0469
2019-05-16T11:31:04.029Z,48.7793
2019-05-16T11:32:07.356Z,49.2798
2019-05-16T11:33:10.307Z,48.9563
2019-05-16T11:34:13.333Z,48.0469
2019-05-16T11:35:17.135Z,47.9248
2019-05-16T11:36:20.323Z,46.3867
2019-05-16T11:37:23.347Z,46.8689
2019-05-16T11:38:26.343Z,46.2463
2019-05-16T11:39:29.281Z,46.1426
2019-05-16T11:40:32.288Z,45.0562
2019-05-16T11:41:35.364Z,45.6848
2019-05-16T11:42:38.396Z,45.7825
2019-05-16T11:43:41.312Z,47.0947
2019-05-16T11:44:47.592Z,47.3755
2019-05-16T11:45:51.336Z,47.1313
2019-05-16T11:46:54.300Z,46.0999
2019-05-16T11:47:57.383Z,46.6614
2019-05-16T11:49:00.317Z,46.6614
2019-05-16T11:50:03.319Z,44.2261
2019-05-16T11:51:07.081Z,42.7979
2019-05-16T11:52:10.323Z,43.0786
2019-05-16T11:53:13.379Z,42.7795
2019-05-16T11:54:16.338Z,43.0603
2019-05-16T11:55:19.328Z,42.8345
2019-05-16T11:56:22.286Z,42.8345
2019-05-16T11:57:25.349Z,42.9382
2019-05-16T11:58:28.343Z,42.8589
2019-05-16T11:59:31.348Z,42.2546
2019-05-16T12:00:33.303Z,42.5537
2019-05-16T12:01:36.952Z,43.0603
2019-05-16T12:02:42.674Z,43.8416
2019-05-16T12:03:46.829Z,42.5354
2019-05-16T12:04:50.306Z,41.9312
2019-05-16T12:05:53.307Z,42.1326
2019-05-16T12:06:57.433Z,38.7390
2019-05-16T12:08:00.341Z,38.5437
2019-05-16T12:09:03.342Z,39.8804
2019-05-16T12:10:07.610Z,40.1855
2019-05-16T12:11:10.321Z,40.4053
2019-05-16T12:12:13.304Z,41.9495
2019-05-16T12:13:25.405Z,42.6758
2019-05-16T12:14:24.344Z,43.3044
2019-05-16T12:15:27.518Z,43.7073
2019-05-16T12:16:30.358Z,44.3115
2019-05-16T12:17:33.300Z,44.4885
2019-05-16T12:18:37.286Z,44.6716
2019-05-16T12:19:43.994Z,43.1396
2019-05-16T12:20:47.378Z,42.6392
2019-05-16T12:21:50.280Z,42.1326
2019-05-16T12:22:53.322Z,42.3340
2019-05-16T12:23:56.346Z,43.3594
2019-05-16T12:24:59.304Z,42.3767
2019-05-16T12:26:02.353Z,42.3157
2019-05-16T12:27:07.955Z,42.1326
2019-05-16T12:28:11.346Z,43.5852
2019-05-16T12:29:17.100Z,44.6167
2019-05-16T12:30:20.304Z,45.5444
2019-05-16T12:31:23.286Z,45.6482
2019-05-16T12:32:27.684Z,46.6370
2019-05-16T12:33:30.376Z,47.4426
2019-05-16T12:34:32.453Z,46.1060
2019-05-16T12:35:36.961Z,46.1853
2019-05-16T12:36:39.258Z,46.6919
2019-05-16T12:37:41.510Z,46.2891
2019-05-16T12:38:46.623Z,45.7825
2019-05-16T12:39:50.299Z,45.8069
2019-05-16T12:40:53.309Z,45.6055
2019-05-16T12:41:59.227Z,46.1304
2019-05-16T12:43:03.305Z,46.5576
2019-05-16T12:44:07.548Z,47.5647
2019-05-16T12:45:11.318Z,48.1689
2019-05-16T12:46:14.303Z,48.6511
2019-05-16T12:47:17.327Z,48.2239
2019-05-16T12:48:20.428Z,47.7783
2019-05-16T12:49:24.327Z,46.0632
2019-05-16T12:50:28.655Z,46.4478
2019-05-16T12:51:32.328Z,45.5383
2019-05-16T12:52:38.247Z,45.8435
2019-05-16T12:53:41.367Z,45.9656
2019-05-16T12:54:43.292Z,45.7825
2019-05-16T12:55:47.633Z,45.6055